Time;durP1;ratioP1;P1;durP2;ratioP2;P2;SDS_P1;SDS_P2;PMS_P1;PMS_P2;Temp;Humidity;BMP_temperature;BMP_pressure;BME280_temperature;BME280_humidity;BME280_pressure;Samples;Min_cycle;Max_cycle;Signal;HPM_P1;HPM_P2
2022/03/07 00:00:20;;;;;;;;;;;;;;;;;;1021644;28;2698;-70
2022/03/07 00:01:09;;;;;;;;;;;;;;;;;;1021539;28;3901;-71
2022/03/07 00:01:40;;;;;;;;;;;;;;;;;;1022737;28;2124;-70
2022/03/07 00:02:13;;;;;;;;;;;;;;;;;;1022889;28;4071;-71
2022/03/07 00:02:57;;;;;;;;;;;;;;;;;;1022142;28;4282;-71
2022/03/07 00:03:34;;;;;;;;;;;;;;;;;;1015907;29;3209;-72
2022/03/07 00:04:05;;;;;;;;;;;;;;;;;;1018789;29;3884;-70
2022/03/07 00:04:35;;;;;;;;;;;;;;;;;;1018204;29;2091;-72
2022/03/07 00:05:06;;;;;;;;;;;;;;;;;;1018573;29;3892;-72
2022/03/07 00:05:36;;;;;;;;;;;;;;;;;;1017333;29;2859;-71
2022/03/07 00:06:07;;;;;;;;;;;;;;;;;;1017861;29;4068;-71
2022/03/07 00:06:37;;;;;;;;;;;;;;;;;;1016855;29;2482;-71
2022/03/07 00:07:07;;;;;;;;;;;;;;;;;;1017333;29;3779;-72
2022/03/07 00:07:37;;;;;;;;;;;;;;;;;;1018509;29;2526;-72
2022/03/07 00:08:08;;;;;;;;;;;;;;;;;;1014251;29;4110;-72
2022/03/07 00:08:38;;;;;;;;;;;;;;;;;;1012324;29;2789;-70
2022/03/07 00:09:09;;;;;;;;;;;;;;;;;;1013864;29;4088;-72
2022/03/07 00:09:39;;;;;;;;;;;;;;;;;;1013751;29;1788;-71
2022/03/07 00:10:09;;;;;;;;;;;;;;;;;;1018789;29;3852;-72
2022/03/07 00:10:39;;;;;;;;;;;;;;;;;;1013818;29;2762;-71
2022/03/07 00:11:10;;;;;;;;;;;;;;;;;;1013578;29;5203;-71
2022/03/07 00:11:41;;;;;;;;;;;;;;;;;;1013114;29;4000;-70
2022/03/07 00:12:11;;;;;;;;;;;;;;;;;;1011173;29;1694;-70
2022/03/07 00:12:41;;;;;;;;;;;;;;;;;;1008137;29;3970;-71
2022/03/07 00:13:11;;;;;;;;;;;;;;;;;;1011112;29;1925;-70
2022/03/07 00:13:45;;;;;;;;;;;;;;;;;;1009167;29;4450;-72
2022/03/07 00:14:15;;;;;;;;;;;;;;;;;;1019037;29;2987;-72
2022/03/07 00:14:45;;;;;;;;;;;;;;;;;;1012869;29;3970;-70
2022/03/07 00:15:16;;;;;;;;;;;;;;;;;;1013415;29;3032;-70
2022/03/07 00:15:46;;;;;;;;;;;;;;;;;;1012535;29;3998;-72
2022/03/07 00:16:16;;;;;;;;;;;;;;;;;;1013674;29;2830;-71
2022/03/07 00:16:47;;;;;;;;;;;;;;;;;;1017794;29;3890;-70
2022/03/07 00:17:17;;;;;;;;;;;;;;;;;;1018272;29;2891;-73
2022/03/07 00:17:47;;;;;;;;;;;;;;;;;;1018661;29;3935;-71
2022/03/07 00:18:18;;;;;;;;;;;;;;;;;;1017500;29;2052;-70
2022/03/07 00:18:48;;;;;;;;;;;;;;;;;;1017106;29;3999;-72
2022/03/07 00:19:19;;;;;;;;;;;;;;;;;;1018901;29;1795;-71
2022/03/07 00:19:49;;;;;;;;;;;;;;;;;;1017797;29;4109;-71
2022/03/07 00:20:19;;;;;;;;;;;;;;;;;;1018696;29;2899;-72
2022/03/07 00:20:49;;;;;;;;;;;;;;;;;;1017153;29;4107;-70
2022/03/07 00:21:20;;;;;;;;;;;;;;;;;;1018721;29;1974;-70
2022/03/07 00:21:50;;;;;;;;;;;;;;;;;;1017309;29;4004;-71
2022/03/07 00:22:21;;;;;;;;;;;;;;;;;;1018377;29;2027;-71
2022/03/07 00:22:54;;;;;;;;;;;;;;;;;;1018079;29;3945;-71
2022/03/07 00:23:24;;;;;;;;;;;;;;;;;;1018426;29;2951;-73
2022/03/07 00:23:54;;;;;;;;;;;;;;;;;;1017655;29;3914;-71
2022/03/07 00:24:24;;;;;;;;;;;;;;;;;;1017020;29;1955;-71
2022/03/07 00:24:55;;;;;;;;;;;;;;;;;;1017062;29;3886;-72
2022/03/07 00:25:25;;;;;;;;;;;;;;;;;;1018005;29;2330;-72
2022/03/07 00:25:56;;;;;;;;;;;;;;;;;;1013663;29;3917;-71
2022/03/07 00:26:26;;;;;;;;;;;;;;;;;;1013626;29;2133;-73
2022/03/07 00:26:56;;;;;;;;;;;;;;;;;;1017924;29;3851;-71
2022/03/07 00:27:27;;;;;;;;;;;;;;;;;;1017584;29;2259;-70
2022/03/07 00:27:57;;;;;;;;;;;;;;;;;;1017721;29;3819;-72
2022/03/07 00:28:27;;;;;;;;;;;;;;;;;;1016882;29;2899;-70
2022/03/07 00:28:57;;;;;;;;;;;;;;;;;;1018433;29;3829;-72
2022/03/07 00:29:28;;;;;;;;;;;;;;;;;;1017997;29;2484;-71
2022/03/07 00:29:58;;;;;;;;;;;;;;;;;;1018244;29;3837;-72
2022/03/07 00:30:28;;;;;;;;;;;;;;;;;;1013101;29;2857;-70
2022/03/07 00:30:59;;;;;;;;;;;;;;;;;;1013594;29;3986;-71
2022/03/07 00:31:29;;;;;;;;;;;;;;;;;;1013353;29;2610;-71
2022/03/07 00:31:59;;;;;;;;;;;;;;;;;;1014326;29;4348;-72
2022/03/07 00:32:30;;;;;;;;;;;;;;;;;;1017772;29;2053;-72
2022/03/07 00:33:00;;;;;;;;;;;;;;;;;;1018093;29;4082;-73
2022/03/07 00:33:30;;;;;;;;;;;;;;;;;;1016964;29;2764;-70
2022/03/07 00:34:00;;;;;;;;;;;;;;;;;;1017914;29;3845;-71
2022/03/07 00:34:30;;;;;;;;;;;;;;;;;;1017870;29;2780;-70
2022/03/07 00:35:01;;;;;;;;;;;;;;;;;;1017864;29;4128;-73
2022/03/07 00:35:31;;;;;;;;;;;;;;;;;;1017825;29;2776;-71
2022/03/07 00:36:02;;;;;;;;;;;;;;;;;;1017871;29;3813;-72
2022/03/07 00:36:32;;;;;;;;;;;;;;;;;;1017060;29;3379;-71
2022/03/07 00:37:02;;;;;;;;;;;;;;;;;;1017400;29;3989;-72
2022/03/07 00:37:33;;;;;;;;;;;;;;;;;;1019138;29;2038;-71
2022/03/07 00:38:03;;;;;;;;;;;;;;;;;;1018175;29;4175;-71
2022/03/07 00:38:34;;;;;;;;;;;;;;;;;;1016809;29;3218;-73
2022/03/07 00:39:04;;;;;;;;;;;;;;;;;;1013672;29;3970;-71
2022/03/07 00:39:34;;;;;;;;;;;;;;;;;;1013244;29;3137;-71
2022/03/07 00:40:06;;;;;;;;;;;;;;;;;;1013266;29;3918;-74
2022/03/07 00:40:43;;;;;;;;;;;;;;;;;;1015611;29;3805;-74
2022/03/07 00:41:14;;;;;;;;;;;;;;;;;;1018212;29;2205;-71
2022/03/07 00:41:44;;;;;;;;;;;;;;;;;;1018288;29;4089;-73
2022/03/07 00:42:14;;;;;;;;;;;;;;;;;;1018880;29;2158;-72
2022/03/07 00:42:44;;;;;;;;;;;;;;;;;;1016278;29;4238;-73
2022/03/07 00:43:15;;;;;;;;;;;;;;;;;;1017991;29;2828;-71
2022/03/07 00:43:45;;;;;;;;;;;;;;;;;;1017866;29;3865;-71
2022/03/07 00:44:15;;;;;;;;;;;;;;;;;;1018919;29;1656;-72
2022/03/07 00:44:46;;;;;;;;;;;;;;;;;;1017619;29;4092;-71
2022/03/07 00:45:16;;;;;;;;;;;;;;;;;;1017944;29;2823;-72
2022/03/07 00:45:47;;;;;;;;;;;;;;;;;;1015999;29;3848;-74
2022/03/07 00:46:17;;;;;;;;;;;;;;;;;;1018477;29;2050;-72
2022/03/07 00:46:48;;;;;;;;;;;;;;;;;;1017840;29;3807;-73
2022/03/07 00:47:18;;;;;;;;;;;;;;;;;;1018291;29;2794;-72
2022/03/07 00:47:48;;;;;;;;;;;;;;;;;;1018329;29;4093;-73
2022/03/07 00:48:19;;;;;;;;;;;;;;;;;;1008833;29;2913;-71
2022/03/07 00:48:49;;;;;;;;;;;;;;;;;;1009017;29;4216;-70
2022/03/07 00:49:19;;;;;;;;;;;;;;;;;;1010227;29;2801;-72
2022/03/07 00:49:49;;;;;;;;;;;;;;;;;;1010775;29;4570;-72
2022/03/07 00:50:20;;;;;;;;;;;;;;;;;;1018221;29;1877;-73
2022/03/07 00:50:51;;;;;;;;;;;;;;;;;;1018037;29;3838;-72
2022/03/07 00:51:23;;;;;;;;;;;;;;;;;;1014734;29;3239;-71
2022/03/07 00:51:55;;;;;;;;;;;;;;;;;;1012464;29;4292;-72
2022/03/07 00:52:25;;;;;;;;;;;;;;;;;;1014307;29;3171;-72
2022/03/07 00:52:55;;;;;;;;;;;;;;;;;;1013524;29;4091;-72
2022/03/07 00:53:26;;;;;;;;;;;;;;;;;;1018412;29;2280;-74
2022/03/07 00:53:57;;;;;;;;;;;;;;;;;;1018070;29;4194;-72
2022/03/07 00:54:27;;;;;;;;;;;;;;;;;;1015189;29;2178;-73
2022/03/07 00:54:57;;;;;;;;;;;;;;;;;;1013576;29;3920;-74
2022/03/07 00:55:28;;;;;;;;;;;;;;;;;;1014844;29;2301;-70
2022/03/07 00:55:58;;;;;;;;;;;;;;;;;;1014473;29;4039;-74
2022/03/07 00:56:28;;;;;;;;;;;;;;;;;;1017800;29;2310;-73
2022/03/07 00:56:58;;;;;;;;;;;;;;;;;;1016240;29;3832;-72
2022/03/07 00:57:29;;;;;;;;;;;;;;;;;;1017408;29;1988;-73
2022/03/07 00:57:59;;;;;;;;;;;;;;;;;;1016679;29;3998;-72
2022/03/07 00:58:29;;;;;;;;;;;;;;;;;;1017721;29;2391;-71
2022/03/07 00:58:59;;;;;;;;;;;;;;;;;;1018997;29;4072;-73
2022/03/07 00:59:30;;;;;;;;;;;;;;;;;;1018120;29;2310;-72
2022/03/07 01:00:00;;;;;;;;;;;;;;;;;;1017908;29;4085;-73
2022/03/07 01:00:31;;;;;;;;;;;;;;;;;;1017525;29;2522;-71
2022/03/07 01:01:01;;;;;;;;;;;;;;;;;;1017657;29;4268;-69
2022/03/07 01:01:31;;;;;;;;;;;;;;;;;;1018206;29;3015;-72
2022/03/07 01:02:02;;;;;;;;;;;;;;;;;;1018431;29;4203;-72
2022/03/07 01:02:32;;;;;;;;;;;;;;;;;;1016849;29;2428;-72
2022/03/07 01:03:16;;;;;;;;;;;;;;;;;;1019434;28;3865;-73
2022/03/07 01:03:53;;;;;;;;;;;;;;;;;;1020356;29;4093;-75
2022/03/07 01:04:23;;;;;;;;;;;;;;;;;;1022386;28;2176;-75
2022/03/07 01:04:55;;;;;;;;;;;;;;;;;;1022334;28;4017;-74
2022/03/07 01:05:25;;;;;;;;;;;;;;;;;;1022005;28;1864;-74
2022/03/07 01:05:56;;;;;;;;;;;;;;;;;;1021109;28;4006;-74
2022/03/07 01:06:26;;;;;;;;;;;;;;;;;;1021861;28;2245;-74
2022/03/07 01:06:56;;;;;;;;;;;;;;;;;;1021264;28;4175;-75
2022/03/07 01:07:27;;;;;;;;;;;;;;;;;;1021604;28;2922;-73
2022/03/07 01:07:58;;;;;;;;;;;;;;;;;;1022223;28;3975;-75
2022/03/07 01:08:28;;;;;;;;;;;;;;;;;;1022627;28;2199;-74
2022/03/07 01:08:58;;;;;;;;;;;;;;;;;;1021931;28;4001;-74
2022/03/07 01:09:28;;;;;;;;;;;;;;;;;;1021115;29;2878;-73
2022/03/07 01:09:59;;;;;;;;;;;;;;;;;;1020885;28;4471;-74
2022/03/07 01:10:29;;;;;;;;;;;;;;;;;;1021784;28;2331;-74
2022/03/07 01:10:59;;;;;;;;;;;;;;;;;;1021722;29;4010;-72
2022/03/07 01:11:30;;;;;;;;;;;;;;;;;;1021745;28;2766;-74
2022/03/07 01:12:00;;;;;;;;;;;;;;;;;;1022137;28;3965;-73
2022/03/07 01:12:30;;;;;;;;;;;;;;;;;;1022329;28;2150;-74
2022/03/07 01:13:01;;;;;;;;;;;;;;;;;;1021530;28;4002;-74
2022/03/07 01:13:31;;;;;;;;;;;;;;;;;;1021891;29;2710;-74
2022/03/07 01:14:01;;;;;;;;;;;;;;;;;;1022072;28;3852;-74
2022/03/07 01:14:32;;;;;;;;;;;;;;;;;;1021849;28;2627;-75
2022/03/07 01:15:03;;;;;;;;;;;;;;;;;;1021570;28;3843;-74
2022/03/07 01:15:33;;;;;;;;;;;;;;;;;;1022017;29;2488;-73
2022/03/07 01:16:04;;;;;;;;;;;;;;;;;;1022751;28;3794;-74
2022/03/07 01:16:34;;;;;;;;;;;;;;;;;;1022587;29;2536;-75
2022/03/07 01:17:05;;;;;;;;;;;;;;;;;;1021852;29;3841;-75
2022/03/07 01:17:35;;;;;;;;;;;;;;;;;;1022016;29;2271;-75
2022/03/07 01:18:06;;;;;;;;;;;;;;;;;;1021644;28;3802;-74
2022/03/07 01:18:36;;;;;;;;;;;;;;;;;;1021430;28;2470;-74
2022/03/07 01:19:06;;;;;;;;;;;;;;;;;;1017944;29;3871;-75
2022/03/07 01:19:36;;;;;;;;;;;;;;;;;;1017645;29;2690;-76
2022/03/07 01:20:08;;;;;;;;;;;;;;;;;;1017725;29;4094;-74
2022/03/07 01:20:38;;;;;;;;;;;;;;;;;;1014139;29;2768;-73
2022/03/07 01:21:09;;;;;;;;;;;;;;;;;;1018127;29;4125;-76
2022/03/07 01:21:39;;;;;;;;;;;;;;;;;;1017287;29;2933;-75
2022/03/07 01:22:10;;;;;;;;;;;;;;;;;;1017775;29;3776;-73
2022/03/07 01:22:43;;;;;;;;;;;;;;;;;;1021688;28;4031;-74
2022/03/07 01:23:13;;;;;;;;;;;;;;;;;;1017948;29;2728;-75
2022/03/07 01:23:43;;;;;;;;;;;;;;;;;;1017927;29;3929;-75
2022/03/07 01:24:14;;;;;;;;;;;;;;;;;;1018672;29;3016;-75
2022/03/07 01:24:44;;;;;;;;;;;;;;;;;;1016336;29;4306;-75
2022/03/07 01:25:14;;;;;;;;;;;;;;;;;;1021899;28;1888;-74
2022/03/07 01:25:44;;;;;;;;;;;;;;;;;;1020840;28;3830;-75
2022/03/07 01:26:15;;;;;;;;;;;;;;;;;;1018710;29;2547;-74
2022/03/07 01:26:46;;;;;;;;;;;;;;;;;;1018388;29;3999;-75
2022/03/07 01:27:16;;;;;;;;;;;;;;;;;;1019404;29;2652;-75
2022/03/07 01:27:46;;;;;;;;;;;;;;;;;;1016486;29;3829;-76
2022/03/07 01:28:17;;;;;;;;;;;;;;;;;;1022418;28;2680;-74
2022/03/07 01:28:47;;;;;;;;;;;;;;;;;;1021225;28;3834;-76
2022/03/07 01:29:19;;;;;;;;;;;;;;;;;;1022233;28;1852;-74
2022/03/07 01:29:55;;;;;;;;;;;;;;;;;;1021715;28;3832;-74
2022/03/07 01:30:25;;;;;;;;;;;;;;;;;;1022313;28;2459;-75
2022/03/07 01:30:56;;;;;;;;;;;;;;;;;;1020784;28;3983;-74
2022/03/07 01:31:26;;;;;;;;;;;;;;;;;;1021776;29;2346;-73
2022/03/07 01:31:56;;;;;;;;;;;;;;;;;;1019082;29;4011;-75
2022/03/07 01:32:26;;;;;;;;;;;;;;;;;;1017884;29;2335;-73
2022/03/07 01:32:59;;;;;;;;;;;;;;;;;;1017835;29;3847;-74
2022/03/07 01:33:29;;;;;;;;;;;;;;;;;;1018125;29;1851;-75
2022/03/07 01:34:00;;;;;;;;;;;;;;;;;;1020361;28;4067;-74
2022/03/07 01:34:30;;;;;;;;;;;;;;;;;;1021357;28;2767;-74
2022/03/07 01:35:00;;;;;;;;;;;;;;;;;;1020504;28;4177;-75
2022/03/07 01:35:30;;;;;;;;;;;;;;;;;;1022433;28;1790;-75
2022/03/07 01:36:01;;;;;;;;;;;;;;;;;;1022264;28;4017;-74
2022/03/07 01:36:31;;;;;;;;;;;;;;;;;;1021727;28;2391;-75
2022/03/07 01:37:01;;;;;;;;;;;;;;;;;;1020329;28;4114;-76
2022/03/07 01:37:32;;;;;;;;;;;;;;;;;;1022485;29;2511;-74
2022/03/07 01:38:03;;;;;;;;;;;;;;;;;;1021994;28;4070;-74
2022/03/07 01:38:34;;;;;;;;;;;;;;;;;;1022336;28;2422;-74
2022/03/07 01:39:04;;;;;;;;;;;;;;;;;;1021378;28;3942;-75
2022/03/07 01:39:34;;;;;;;;;;;;;;;;;;1021938;28;1904;-74
2022/03/07 01:40:05;;;;;;;;;;;;;;;;;;1022329;28;3817;-74
2022/03/07 01:40:35;;;;;;;;;;;;;;;;;;1022519;28;1859;-75
2022/03/07 01:41:05;;;;;;;;;;;;;;;;;;1021651;28;3927;-74
2022/03/07 01:41:35;;;;;;;;;;;;;;;;;;1017821;29;1851;-75
2022/03/07 01:42:06;;;;;;;;;;;;;;;;;;1017480;29;3815;-74
2022/03/07 01:42:36;;;;;;;;;;;;;;;;;;1018469;29;2984;-73
2022/03/07 01:43:07;;;;;;;;;;;;;;;;;;1016706;29;3826;-74
2022/03/07 01:43:41;;;;;;;;;;;;;;;;;;1023392;28;4017;-74
2022/03/07 01:44:15;;;;;;;;;;;;;;;;;;1023039;28;2861;-74
2022/03/07 01:44:45;;;;;;;;;;;;;;;;;;1025210;28;4083;-74
2022/03/07 01:45:17;;;;;;;;;;;;;;;;;;1023498;28;1984;-76
2022/03/07 01:45:47;;;;;;;;;;;;;;;;;;1020086;28;3837;-75
2022/03/07 01:46:18;;;;;;;;;;;;;;;;;;1021849;28;3226;-75
2022/03/07 01:46:48;;;;;;;;;;;;;;;;;;1021998;28;4068;-73
2022/03/07 01:47:18;;;;;;;;;;;;;;;;;;1022345;29;2107;-75
2022/03/07 01:47:49;;;;;;;;;;;;;;;;;;1021732;28;4051;-74
2022/03/07 01:48:19;;;;;;;;;;;;;;;;;;1022264;28;2571;-74
2022/03/07 01:48:49;;;;;;;;;;;;;;;;;;1021091;28;3892;-74
2022/03/07 01:49:20;;;;;;;;;;;;;;;;;;1021290;28;3169;-73
2022/03/07 01:49:52;;;;;;;;;;;;;;;;;;1017562;29;3847;-71
2022/03/07 01:50:23;;;;;;;;;;;;;;;;;;1019472;29;2156;-73
2022/03/07 01:50:53;;;;;;;;;;;;;;;;;;1019605;29;5373;-75
2022/03/07 01:51:24;;;;;;;;;;;;;;;;;;1018030;29;2229;-74
2022/03/07 01:51:55;;;;;;;;;;;;;;;;;;1020703;28;4008;-74
2022/03/07 01:52:26;;;;;;;;;;;;;;;;;;1022653;28;2708;-75
2022/03/07 01:52:56;;;;;;;;;;;;;;;;;;1022385;28;3816;-74
2022/03/07 01:53:27;;;;;;;;;;;;;;;;;;1017224;29;1879;-75
2022/03/07 01:53:57;;;;;;;;;;;;;;;;;;1014539;29;3890;-73
2022/03/07 01:54:27;;;;;;;;;;;;;;;;;;1014239;29;2733;-76
2022/03/07 01:54:58;;;;;;;;;;;;;;;;;;1012242;29;3891;-75
2022/03/07 01:55:28;;;;;;;;;;;;;;;;;;1013907;29;2061;-74
2022/03/07 01:55:59;;;;;;;;;;;;;;;;;;1017233;29;3931;-75
2022/03/07 01:56:29;;;;;;;;;;;;;;;;;;1017743;29;2299;-75
2022/03/07 01:56:59;;;;;;;;;;;;;;;;;;1017494;29;3816;-75
2022/03/07 01:57:30;;;;;;;;;;;;;;;;;;1022776;28;1889;-75
2022/03/07 01:58:00;;;;;;;;;;;;;;;;;;1020085;28;3830;-74
2022/03/07 01:58:30;;;;;;;;;;;;;;;;;;1021383;28;2126;-76
2022/03/07 01:59:01;;;;;;;;;;;;;;;;;;1022218;28;4259;-75
2022/03/07 01:59:37;;;;;;;;;;;;;;;;;;1021823;28;2261;-75
2022/03/07 02:00:09;;;;;;;;;;;;;;;;;;1021662;28;3853;-75
2022/03/07 02:00:39;;;;;;;;;;;;;;;;;;1022063;28;2598;-76
2022/03/07 02:01:10;;;;;;;;;;;;;;;;;;1016084;29;3771;-75
2022/03/07 02:01:41;;;;;;;;;;;;;;;;;;1017421;29;3936;-75
2022/03/07 02:02:11;;;;;;;;;;;;;;;;;;1017392;29;2512;-75
2022/03/07 02:02:42;;;;;;;;;;;;;;;;;;1017622;28;4063;-74
2022/03/07 02:03:19;;;;;;;;;;;;;;;;;;1018034;29;1877;-75
2022/03/07 02:03:49;;;;;;;;;;;;;;;;;;1016444;29;3993;-75
2022/03/07 02:04:19;;;;;;;;;;;;;;;;;;1016961;29;2978;-75
2022/03/07 02:04:50;;;;;;;;;;;;;;;;;;1018580;29;3929;-75
2022/03/07 02:05:21;;;;;;;;;;;;;;;;;;1022043;29;2201;-75
2022/03/07 02:05:51;;;;;;;;;;;;;;;;;;1017737;29;4045;-73
2022/03/07 02:06:22;;;;;;;;;;;;;;;;;;1018408;29;2749;-75
2022/03/07 02:06:52;;;;;;;;;;;;;;;;;;1017308;29;4101;-74
2022/03/07 02:07:23;;;;;;;;;;;;;;;;;;1017724;29;2452;-75
2022/03/07 02:07:54;;;;;;;;;;;;;;;;;;1021860;28;3987;-73
2022/03/07 02:08:25;;;;;;;;;;;;;;;;;;1022122;28;2535;-74
2022/03/07 02:08:55;;;;;;;;;;;;;;;;;;1021826;28;3978;-75
2022/03/07 02:09:26;;;;;;;;;;;;;;;;;;1022177;28;2743;-75
2022/03/07 02:09:58;;;;;;;;;;;;;;;;;;1021408;28;4023;-74
2022/03/07 02:10:28;;;;;;;;;;;;;;;;;;1021733;29;2020;-76
2022/03/07 02:10:59;;;;;;;;;;;;;;;;;;1021741;28;3836;-73
2022/03/07 02:11:30;;;;;;;;;;;;;;;;;;1021624;28;3149;-74
2022/03/07 02:12:00;;;;;;;;;;;;;;;;;;1021617;28;4069;-74
2022/03/07 02:12:30;;;;;;;;;;;;;;;;;;1022035;28;2631;-75
2022/03/07 02:13:01;;;;;;;;;;;;;;;;;;1021260;28;3995;-75
2022/03/07 02:13:31;;;;;;;;;;;;;;;;;;1022252;28;2525;-74
2022/03/07 02:14:11;;;;;;;;;;;;;;;;;;1018370;29;3847;-75
2022/03/07 02:14:42;;;;;;;;;;;;;;;;;;1017896;29;4015;-73
2022/03/07 02:15:12;;;;;;;;;;;;;;;;;;1018056;29;2743;-74
2022/03/07 02:15:42;;;;;;;;;;;;;;;;;;1019034;28;4022;-75
2022/03/07 02:16:14;;;;;;;;;;;;;;;;;;1021911;28;2419;-74
2022/03/07 02:16:45;;;;;;;;;;;;;;;;;;1021423;28;3894;-74
2022/03/07 02:17:15;;;;;;;;;;;;;;;;;;1017360;29;2677;-75
2022/03/07 02:17:46;;;;;;;;;;;;;;;;;;1013903;29;3961;-75
2022/03/07 02:18:16;;;;;;;;;;;;;;;;;;1014545;29;2500;-75
2022/03/07 02:18:47;;;;;;;;;;;;;;;;;;1012675;29;4094;-75
2022/03/07 02:19:17;;;;;;;;;;;;;;;;;;1017913;29;2438;-74
2022/03/07 02:19:48;;;;;;;;;;;;;;;;;;1023774;28;3869;-75
2022/03/07 02:20:18;;;;;;;;;;;;;;;;;;1023529;28;1709;-76
2022/03/07 02:20:50;;;;;;;;;;;;;;;;;;1024931;28;3911;-74
2022/03/07 02:21:21;;;;;;;;;;;;;;;;;;1023151;28;2260;-74
2022/03/07 02:21:56;;;;;;;;;;;;;;;;;;1021008;28;3824;-75
2022/03/07 02:22:26;;;;;;;;;;;;;;;;;;1021649;28;2451;-75
2022/03/07 02:22:56;;;;;;;;;;;;;;;;;;1018088;29;4019;-74
2022/03/07 02:23:27;;;;;;;;;;;;;;;;;;1017378;29;2872;-75
2022/03/07 02:23:57;;;;;;;;;;;;;;;;;;1017907;29;3902;-74
2022/03/07 02:24:28;;;;;;;;;;;;;;;;;;1018166;29;2642;-73
2022/03/07 02:24:58;;;;;;;;;;;;;;;;;;1021960;28;3833;-75
2022/03/07 02:25:29;;;;;;;;;;;;;;;;;;1018408;29;2293;-74
2022/03/07 02:25:59;;;;;;;;;;;;;;;;;;1013662;29;4022;-73
2022/03/07 02:26:30;;;;;;;;;;;;;;;;;;1015038;29;2411;-73
2022/03/07 02:27:08;;;;;;;;;;;;;;;;;;1014130;29;3781;-73
2022/03/07 02:27:38;;;;;;;;;;;;;;;;;;1019136;28;2428;-75
2022/03/07 02:28:09;;;;;;;;;;;;;;;;;;1020297;29;3781;-75
2022/03/07 02:28:39;;;;;;;;;;;;;;;;;;1022026;28;2892;-75
2022/03/07 02:29:10;;;;;;;;;;;;;;;;;;1021881;28;3767;-75
2022/03/07 02:29:41;;;;;;;;;;;;;;;;;;1022856;28;4002;-75
2022/03/07 02:30:12;;;;;;;;;;;;;;;;;;1022082;28;1912;-73
2022/03/07 02:30:42;;;;;;;;;;;;;;;;;;1022638;28;4019;-76
2022/03/07 02:31:16;;;;;;;;;;;;;;;;;;1016119;29;2616;-75
2022/03/07 02:31:46;;;;;;;;;;;;;;;;;;1018061;29;4906;-75
2022/03/07 02:32:16;;;;;;;;;;;;;;;;;;1017903;29;2510;-74
2022/03/07 02:32:46;;;;;;;;;;;;;;;;;;1018062;29;3851;-74
2022/03/07 02:33:16;;;;;;;;;;;;;;;;;;1022058;28;2718;-73
2022/03/07 02:33:47;;;;;;;;;;;;;;;;;;1021875;28;3918;-75
2022/03/07 02:34:18;;;;;;;;;;;;;;;;;;1021090;28;2972;-76
2022/03/07 02:34:48;;;;;;;;;;;;;;;;;;1021283;28;4087;-74
2022/03/07 02:35:18;;;;;;;;;;;;;;;;;;1022123;28;2375;-73
2022/03/07 02:35:48;;;;;;;;;;;;;;;;;;1021417;28;3870;-74
2022/03/07 02:36:19;;;;;;;;;;;;;;;;;;1021661;28;2083;-75
2022/03/07 02:36:52;;;;;;;;;;;;;;;;;;1020684;28;3891;-74
2022/03/07 02:37:22;;;;;;;;;;;;;;;;;;1021689;28;4292;-73
2022/03/07 02:37:52;;;;;;;;;;;;;;;;;;1022330;28;4087;-75
2022/03/07 02:38:22;;;;;;;;;;;;;;;;;;1022216;28;2123;-75
2022/03/07 02:38:53;;;;;;;;;;;;;;;;;;1021930;28;4632;-76
2022/03/07 02:39:23;;;;;;;;;;;;;;;;;;1021884;28;1922;-74
2022/03/07 02:39:53;;;;;;;;;;;;;;;;;;1021981;28;4011;-74
2022/03/07 02:40:24;;;;;;;;;;;;;;;;;;1021310;28;2448;-75
2022/03/07 02:40:54;;;;;;;;;;;;;;;;;;1022294;28;3984;-73
2022/03/07 02:41:24;;;;;;;;;;;;;;;;;;1022006;28;1931;-75
2022/03/07 02:41:55;;;;;;;;;;;;;;;;;;1021655;28;4105;-76
2022/03/07 02:42:25;;;;;;;;;;;;;;;;;;1021940;28;2529;-75
2022/03/07 02:42:55;;;;;;;;;;;;;;;;;;1021434;29;4367;-75
2022/03/07 02:43:26;;;;;;;;;;;;;;;;;;1021179;28;2826;-76
2022/03/07 02:43:56;;;;;;;;;;;;;;;;;;1021804;28;3804;-75
2022/03/07 02:44:27;;;;;;;;;;;;;;;;;;1022591;29;1581;-75
2022/03/07 02:44:57;;;;;;;;;;;;;;;;;;1017556;29;3834;-74
2022/03/07 02:45:27;;;;;;;;;;;;;;;;;;1017327;29;2308;-73
2022/03/07 02:45:58;;;;;;;;;;;;;;;;;;1017092;29;4069;-73
2022/03/07 02:46:28;;;;;;;;;;;;;;;;;;1017071;29;2586;-74
2022/03/07 02:46:58;;;;;;;;;;;;;;;;;;1021895;28;3993;-75
2022/03/07 02:47:29;;;;;;;;;;;;;;;;;;1021723;28;2752;-74
2022/03/07 02:47:59;;;;;;;;;;;;;;;;;;1022595;28;3997;-74
2022/03/07 02:48:29;;;;;;;;;;;;;;;;;;1021838;29;2657;-75
2022/03/07 02:48:59;;;;;;;;;;;;;;;;;;1021389;28;3838;-74
2022/03/07 02:49:30;;;;;;;;;;;;;;;;;;1021066;28;2460;-75
2022/03/07 02:50:00;;;;;;;;;;;;;;;;;;1022000;28;4018;-75
2022/03/07 02:50:30;;;;;;;;;;;;;;;;;;1021846;28;2438;-75
2022/03/07 02:51:00;;;;;;;;;;;;;;;;;;1022150;28;3903;-74
2022/03/07 02:51:31;;;;;;;;;;;;;;;;;;1022193;28;1702;-76
2022/03/07 02:52:02;;;;;;;;;;;;;;;;;;1020900;28;3901;-75
2022/03/07 02:52:32;;;;;;;;;;;;;;;;;;1021297;29;1862;-74
2022/03/07 02:53:03;;;;;;;;;;;;;;;;;;1021318;28;3986;-75
2022/03/07 02:53:33;;;;;;;;;;;;;;;;;;1021991;28;2791;-75
2022/03/07 02:54:04;;;;;;;;;;;;;;;;;;1021229;29;3977;-76
2022/03/07 02:54:34;;;;;;;;;;;;;;;;;;1022139;28;2078;-75
2022/03/07 02:55:05;;;;;;;;;;;;;;;;;;1021039;28;3805;-76
2022/03/07 02:55:35;;;;;;;;;;;;;;;;;;1020058;28;2944;-74
2022/03/07 02:56:06;;;;;;;;;;;;;;;;;;1021891;28;3903;-75
2022/03/07 02:56:37;;;;;;;;;;;;;;;;;;1021542;29;2480;-74
2022/03/07 02:57:08;;;;;;;;;;;;;;;;;;1022431;29;4005;-73
2022/03/07 02:57:38;;;;;;;;;;;;;;;;;;1021893;28;2017;-75
2022/03/07 02:58:08;;;;;;;;;;;;;;;;;;1020400;28;3958;-75
2022/03/07 02:58:39;;;;;;;;;;;;;;;;;;1021144;29;2416;-73
2022/03/07 02:59:09;;;;;;;;;;;;;;;;;;1021752;28;3818;-75
2022/03/07 02:59:39;;;;;;;;;;;;;;;;;;1022249;28;1984;-75
2022/03/07 03:00:10;;;;;;;;;;;;;;;;;;1021248;28;3746;-75
2022/03/07 03:00:40;;;;;;;;;;;;;;;;;;1022203;28;3812;-75
2022/03/07 03:01:11;;;;;;;;;;;;;;;;;;1021392;28;2456;-74
2022/03/07 03:01:43;;;;;;;;;;;;;;;;;;1021637;28;4021;-74
2022/03/07 03:02:13;;;;;;;;;;;;;;;;;;1021727;28;3156;-74
2022/03/07 03:02:44;;;;;;;;;;;;;;;;;;1019728;28;4075;-75
2022/03/07 03:03:21;;;;;;;;;;;;;;;;;;1021472;28;2119;-74
2022/03/07 03:03:58;;;;;;;;;;;;;;;;;;1020782;28;4092;-74
2022/03/07 03:04:29;;;;;;;;;;;;;;;;;;1021224;29;1882;-75
2022/03/07 03:04:59;;;;;;;;;;;;;;;;;;1022122;28;3909;-74
2022/03/07 03:05:29;;;;;;;;;;;;;;;;;;1021164;28;3084;-74
2022/03/07 03:05:59;;;;;;;;;;;;;;;;;;1021499;28;4056;-74
2022/03/07 03:06:30;;;;;;;;;;;;;;;;;;1021422;29;1803;-76
2022/03/07 03:07:00;;;;;;;;;;;;;;;;;;1020787;28;4187;-73
2022/03/07 03:07:31;;;;;;;;;;;;;;;;;;1020501;28;2390;-74
2022/03/07 03:08:01;;;;;;;;;;;;;;;;;;1021642;28;3994;-73
2022/03/07 03:08:31;;;;;;;;;;;;;;;;;;1021764;28;2326;-73
2022/03/07 03:09:01;;;;;;;;;;;;;;;;;;1020980;28;4357;-75
2022/03/07 03:09:32;;;;;;;;;;;;;;;;;;1017761;29;2280;-74
2022/03/07 03:10:03;;;;;;;;;;;;;;;;;;1017963;29;3952;-74
2022/03/07 03:10:33;;;;;;;;;;;;;;;;;;1017025;29;2019;-73
2022/03/07 03:11:03;;;;;;;;;;;;;;;;;;1017852;29;3858;-76
2022/03/07 03:11:34;;;;;;;;;;;;;;;;;;1022131;28;3270;-74
2022/03/07 03:12:04;;;;;;;;;;;;;;;;;;1022638;28;3808;-75
2022/03/07 03:12:35;;;;;;;;;;;;;;;;;;1021418;28;2229;-75
2022/03/07 03:13:05;;;;;;;;;;;;;;;;;;1015871;29;3841;-74
2022/03/07 03:13:35;;;;;;;;;;;;;;;;;;1017361;29;1812;-75
2022/03/07 03:14:06;;;;;;;;;;;;;;;;;;1017505;29;3800;-73
2022/03/07 03:14:37;;;;;;;;;;;;;;;;;;1018297;29;2337;-76
2022/03/07 03:15:08;;;;;;;;;;;;;;;;;;1017384;29;3902;-76
2022/03/07 03:15:38;;;;;;;;;;;;;;;;;;1021925;28;2268;-75
2022/03/07 03:16:08;;;;;;;;;;;;;;;;;;1019500;28;3827;-74
2022/03/07 03:16:38;;;;;;;;;;;;;;;;;;1021830;28;2460;-76
2022/03/07 03:17:09;;;;;;;;;;;;;;;;;;1021608;28;3947;-74
2022/03/07 03:17:40;;;;;;;;;;;;;;;;;;1021948;28;2271;-76
2022/03/07 03:18:10;;;;;;;;;;;;;;;;;;1021649;29;4142;-73
2022/03/07 03:18:40;;;;;;;;;;;;;;;;;;1019721;28;3829;-74
2022/03/07 03:19:11;;;;;;;;;;;;;;;;;;1021675;28;1833;-74
2022/03/07 03:19:41;;;;;;;;;;;;;;;;;;1015860;29;4098;-73
2022/03/07 03:20:12;;;;;;;;;;;;;;;;;;1018099;29;3979;-76
2022/03/07 03:20:43;;;;;;;;;;;;;;;;;;1012330;29;4210;-74
2022/03/07 03:21:14;;;;;;;;;;;;;;;;;;1014251;29;2787;-74
2022/03/07 03:21:44;;;;;;;;;;;;;;;;;;1017880;29;3826;-75
2022/03/07 03:22:14;;;;;;;;;;;;;;;;;;1017061;29;2023;-75
2022/03/07 03:22:45;;;;;;;;;;;;;;;;;;1022054;28;3987;-73
2022/03/07 03:23:16;;;;;;;;;;;;;;;;;;1021746;28;2492;-74
2022/03/07 03:23:47;;;;;;;;;;;;;;;;;;1021655;28;4045;-75
2022/03/07 03:24:17;;;;;;;;;;;;;;;;;;1022161;28;2163;-74
2022/03/07 03:24:48;;;;;;;;;;;;;;;;;;1021607;28;3897;-74
2022/03/07 03:25:18;;;;;;;;;;;;;;;;;;1020874;28;2046;-74
2022/03/07 03:25:49;;;;;;;;;;;;;;;;;;1020539;28;3844;-75
2022/03/07 03:26:19;;;;;;;;;;;;;;;;;;1022073;28;2137;-74
2022/03/07 03:26:50;;;;;;;;;;;;;;;;;;1021870;28;3859;-75
2022/03/07 03:27:26;;;;;;;;;;;;;;;;;;1021541;29;2751;-75
2022/03/07 03:27:56;;;;;;;;;;;;;;;;;;1017004;29;4310;-75
2022/03/07 03:28:27;;;;;;;;;;;;;;;;;;1016966;29;2099;-73
2022/03/07 03:29:00;;;;;;;;;;;;;;;;;;1017528;29;4171;-74
2022/03/07 03:29:30;;;;;;;;;;;;;;;;;;1018048;29;2706;-74
2022/03/07 03:30:00;;;;;;;;;;;;;;;;;;1022061;28;4139;-75
2022/03/07 03:30:31;;;;;;;;;;;;;;;;;;1022047;28;2000;-76
2022/03/07 03:31:01;;;;;;;;;;;;;;;;;;1022125;28;4071;-74
2022/03/07 03:31:31;;;;;;;;;;;;;;;;;;1020764;29;2451;-75
2022/03/07 03:32:02;;;;;;;;;;;;;;;;;;1021701;28;3999;-74
2022/03/07 03:32:32;;;;;;;;;;;;;;;;;;1021724;28;2450;-74
2022/03/07 03:33:03;;;;;;;;;;;;;;;;;;1020529;28;3986;-74
2022/03/07 03:33:35;;;;;;;;;;;;;;;;;;1021503;28;2368;-74
2022/03/07 03:34:05;;;;;;;;;;;;;;;;;;1021528;28;3773;-75